createdAt,value
2022-12-03T00:00:17.687Z,9.60
2022-12-03T00:03:06.228Z,8.82
2022-12-03T00:05:53.623Z,8.98
2022-12-03T00:08:40.884Z,8.35
2022-12-03T00:11:28.023Z,8.95
2022-12-03T00:14:15.236Z,8.60
2022-12-03T00:17:02.527Z,9.10
2022-12-03T00:19:51.252Z,8.05
2022-12-03T00:22:38.599Z,9.85
2022-12-03T00:25:25.967Z,8.55
2022-12-03T00:28:13.106Z,9.68
2022-12-03T00:31:00.287Z,8.13
2022-12-03T00:33:47.620Z,8.23
2022-12-03T00:36:36.340Z,9.00
2022-12-03T00:39:24.116Z,8.32
2022-12-03T00:42:11.315Z,8.98
2022-12-03T00:44:58.591Z,8.65
2022-12-03T00:47:46.011Z,7.95
2022-12-03T00:50:33.239Z,8.88
2022-12-03T00:53:21.869Z,8.70
2022-12-03T00:56:09.450Z,9.10
2022-12-03T00:58:56.507Z,8.07
2022-12-03T01:01:43.721Z,8.52
2022-12-03T01:04:30.765Z,8.50
2022-12-03T01:07:17.719Z,10.90
2022-12-03T01:10:06.967Z,8.90
2022-12-03T01:12:55.856Z,8.18
2022-12-03T01:15:45.217Z,9.10
2022-12-03T01:18:34.728Z,8.23
2022-12-03T01:21:24.137Z,9.25
2022-12-03T01:24:13.649Z,9.18
2022-12-03T01:27:04.755Z,8.07
2022-12-03T01:29:54.477Z,8.88
2022-12-03T01:32:42.572Z,9.27
2022-12-03T01:35:32.060Z,9.82
2022-12-03T01:38:21.510Z,9.10
2022-12-03T01:41:12.100Z,8.88
2022-12-03T01:44:03.936Z,8.95
2022-12-03T01:46:54.246Z,9.13
2022-12-03T01:49:45.460Z,9.57
2022-12-03T01:52:37.261Z,9.38
2022-12-03T01:55:27.977Z,9.52
2022-12-03T01:58:18.179Z,8.88
2022-12-03T02:01:14.766Z,9.98
2022-12-03T02:04:03.484Z,8.82
2022-12-03T02:06:53.345Z,9.55
2022-12-03T02:09:42.688Z,10.52
2022-12-03T02:12:33.398Z,9.07
2022-12-03T02:15:22.893Z,10.13
2022-12-03T02:18:13.917Z,9.38
2022-12-03T02:21:07.610Z,10.32
2022-12-03T02:24:01.070Z,10.65
2022-12-03T02:26:52.025Z,9.63
2022-12-03T02:29:39.239Z,9.43
2022-12-03T02:32:26.544Z,10.40
2022-12-03T02:35:17.539Z,9.13
2022-12-03T02:38:07.547Z,10.35
2022-12-03T02:40:56.440Z,11.52
2022-12-03T02:43:43.883Z,11.57
2022-12-03T02:46:30.972Z,11.35
2022-12-03T02:49:17.994Z,10.60
2022-12-03T02:52:05.291Z,10.13
2022-12-03T02:54:52.948Z,9.95
2022-12-03T02:57:40.959Z,11.38
2022-12-03T03:00:29.349Z,11.10
2022-12-03T03:03:17.407Z,10.57
2022-12-03T03:06:06.851Z,11.60
2022-12-03T03:08:54.260Z,10.52
2022-12-03T03:11:41.702Z,9.20
2022-12-03T03:14:28.748Z,10.35
2022-12-03T03:17:17.500Z,10.68
2022-12-03T03:20:05.343Z,9.60
2022-12-03T03:22:52.515Z,9.98
2022-12-03T03:25:39.747Z,11.07
2022-12-03T03:28:27.875Z,11.07
2022-12-03T03:31:17.271Z,10.93
2022-12-03T03:34:06.066Z,10.95
2022-12-03T03:36:53.111Z,11.32
2022-12-03T03:39:40.511Z,10.10
2022-12-03T03:42:27.923Z,10.88
2022-12-03T03:45:15.557Z,10.43
2022-12-03T03:48:02.601Z,10.85
2022-12-03T03:50:51.986Z,9.50
2022-12-03T03:53:39.762Z,10.65
2022-12-03T03:56:26.983Z,9.20
2022-12-03T03:59:14.863Z,9.32
2022-12-03T04:02:02.314Z,10.07
2022-12-03T04:04:50.122Z,9.98
2022-12-03T04:07:38.930Z,11.43
2022-12-03T04:10:43.480Z,9.50
2022-12-03T04:13:30.615Z,8.90
2022-12-03T04:16:18.005Z,8.93
2022-12-03T04:19:05.282Z,10.40
2022-12-03T04:22:10.151Z,8.85
2022-12-03T04:28:23.271Z,9.60
2022-12-03T04:31:24.326Z,7.75
2022-12-03T04:34:29.316Z,10.75
2022-12-03T04:37:16.475Z,8.82
2022-12-03T04:40:24.025Z,8.73
2022-12-03T04:43:13.086Z,9.10
2022-12-03T04:46:00.497Z,8.50
2022-12-03T04:48:47.491Z,8.60
2022-12-03T04:51:34.879Z,8.25
2022-12-03T04:54:22.145Z,8.40
2022-12-03T04:57:09.814Z,8.25
2022-12-03T04:59:58.254Z,9.32
2022-12-03T05:02:45.580Z,8.10
2022-12-03T05:05:32.933Z,8.02
2022-12-03T05:08:20.208Z,7.97
2022-12-03T05:11:07.569Z,9.57
2022-12-03T05:13:54.909Z,7.22
2022-12-03T05:16:43.621Z,8.43
2022-12-03T05:19:44.456Z,8.60
2022-12-03T05:22:31.808Z,8.32
2022-12-03T05:25:19.228Z,7.72
2022-12-03T05:28:07.018Z,9.88
2022-12-03T05:30:54.080Z,7.78
2022-12-03T05:33:44.567Z,9.23
2022-12-03T05:36:32.022Z,9.80
2022-12-03T05:39:19.323Z,8.02
2022-12-03T05:42:23.965Z,8.55
2022-12-03T05:45:11.300Z,8.32
2022-12-03T05:47:58.995Z,8.20
2022-12-03T05:50:47.533Z,9.55
2022-12-03T05:53:34.736Z,10.00
2022-12-03T05:56:22.039Z,9.25
2022-12-03T05:59:09.177Z,9.10
2022-12-03T06:01:56.030Z,7.68
2022-12-03T06:04:43.409Z,8.77
2022-12-03T06:07:32.166Z,8.82
2022-12-03T06:10:21.668Z,9.15
2022-12-03T06:13:08.942Z,7.75
2022-12-03T06:15:56.354Z,9.68
2022-12-03T06:18:43.432Z,9.10
2022-12-03T06:21:30.698Z,8.98
2022-12-03T06:24:19.456Z,9.00
2022-12-03T06:27:06.795Z,8.50
2022-12-03T06:29:53.983Z,8.98
2022-12-03T06:32:41.511Z,9.25
2022-12-03T06:35:28.879Z,9.98
2022-12-03T06:38:31.630Z,9.55
2022-12-03T06:41:20.180Z,9.52
2022-12-03T06:44:07.519Z,9.07
2022-12-03T06:46:54.992Z,9.73
2022-12-03T06:49:42.170Z,9.20
2022-12-03T06:52:29.278Z,9.57
2022-12-03T06:55:16.731Z,9.90
2022-12-03T06:58:05.401Z,9.35
2022-12-03T07:00:52.669Z,8.75
2022-12-03T07:03:39.905Z,9.43
2022-12-03T07:06:27.293Z,9.18
2022-12-03T07:09:16.705Z,9.02
2022-12-03T07:12:04.092Z,9.55
2022-12-03T07:14:53.022Z,9.40
2022-12-03T07:17:40.303Z,10.55
2022-12-03T07:20:27.599Z,9.80
2022-12-03T07:23:14.839Z,9.18
2022-12-03T07:26:02.125Z,10.15
2022-12-03T07:28:49.419Z,9.63
2022-12-03T07:31:38.288Z,10.38
2022-12-03T07:34:25.284Z,9.90
2022-12-03T07:37:12.619Z,10.30
2022-12-03T07:39:59.983Z,10.68
2022-12-03T07:42:47.379Z,11.23
2022-12-03T07:45:34.643Z,10.60
2022-12-03T07:48:23.475Z,10.40
2022-12-03T07:51:15.244Z,9.52
2022-12-03T07:54:02.726Z,9.55
2022-12-03T07:56:50.200Z,10.80
2022-12-03T07:59:37.536Z,9.65
2022-12-03T08:02:24.746Z,9.20
2022-12-03T08:05:13.211Z,9.35
2022-12-03T08:08:01.260Z,9.00
2022-12-03T08:10:48.635Z,9.40
2022-12-03T08:13:36.326Z,9.57
2022-12-03T08:16:23.709Z,9.95
2022-12-03T08:19:11.958Z,10.15
2022-12-03T08:22:01.446Z,9.75
2022-12-03T08:24:48.792Z,8.95
2022-12-03T08:27:36.131Z,9.07
2022-12-03T08:30:23.388Z,9.52
2022-12-03T08:33:16.581Z,9.15
2022-12-03T08:36:07.326Z,8.73
2022-12-03T08:38:57.805Z,9.85
2022-12-03T08:41:58.552Z,7.88
2022-12-03T08:44:46.042Z,9.40
2022-12-03T08:47:33.091Z,8.68
2022-12-03T08:50:26.871Z,9.10
2022-12-03T08:53:22.116Z,7.97
2022-12-03T08:56:20.511Z,8.48
2022-12-03T08:59:17.688Z,8.82
2022-12-03T09:02:15.968Z,7.88
2022-12-03T09:05:13.690Z,8.18
2022-12-03T09:08:00.723Z,7.65
2022-12-03T09:10:47.950Z,10.57
2022-12-03T09:13:36.601Z,9.43
2022-12-03T09:16:24.012Z,9.48
2022-12-03T09:19:11.121Z,7.68
2022-12-03T09:21:58.435Z,8.63
2022-12-03T09:24:46.128Z,8.45
2022-12-03T09:27:33.170Z,8.63
2022-12-03T09:30:21.940Z,8.40
2022-12-03T09:33:10.704Z,9.65
2022-12-03T09:35:58.023Z,8.48
2022-12-03T09:38:47.853Z,8.45
2022-12-03T09:41:35.580Z,8.15
2022-12-03T09:44:22.887Z,8.02
2022-12-03T09:47:11.527Z,8.68
2022-12-03T09:49:59.336Z,8.27
2022-12-03T09:52:46.939Z,8.25
2022-12-03T09:55:34.309Z,8.18
2022-12-03T09:58:23.091Z,8.90
2022-12-03T10:01:13.740Z,8.90
2022-12-03T10:04:02.834Z,9.00
2022-12-03T10:06:49.946Z,8.02
2022-12-03T10:09:37.189Z,9.25
2022-12-03T10:12:24.935Z,9.55
2022-12-03T10:15:13.767Z,10.02
2022-12-03T10:18:02.166Z,9.18
2022-12-03T10:20:51.107Z,9.50
2022-12-03T10:23:38.232Z,10.30
2022-12-03T10:26:37.071Z,10.30
2022-12-03T10:29:29.907Z,9.10
2022-12-03T10:32:25.335Z,9.82
2022-12-03T10:35:13.351Z,8.95
2022-12-03T10:38:02.555Z,7.93
2022-12-03T10:40:50.293Z,10.43
2022-12-03T10:43:37.639Z,8.48
2022-12-03T10:46:25.072Z,9.63
2022-12-03T10:49:15.204Z,9.77
2022-12-03T10:52:02.451Z,9.70
2022-12-03T10:54:51.947Z,10.18
2022-12-03T10:57:43.886Z,9.30
2022-12-03T11:00:33.049Z,10.70
2022-12-03T11:03:21.872Z,11.70
2022-12-03T11:06:14.557Z,9.77
2022-12-03T11:09:08.883Z,12.45
2022-12-03T11:12:04.079Z,9.68
2022-12-03T11:15:06.314Z,10.02
2022-12-03T11:17:54.269Z,11.13
2022-12-03T11:20:56.361Z,10.52
2022-12-03T11:24:02.015Z,10.20
2022-12-03T11:27:08.085Z,10.25
2022-12-03T11:30:01.197Z,9.10
2022-12-03T11:33:02.179Z,9.98
2022-12-03T11:36:04.306Z,9.32
2022-12-03T11:38:53.869Z,11.05
2022-12-03T11:41:41.298Z,11.32
2022-12-03T11:44:30.441Z,10.43
2022-12-03T11:47:19.099Z,13.55
2022-12-03T11:50:19.443Z,10.60
2022-12-03T11:53:10.063Z,10.48
2022-12-03T11:56:08.363Z,10.95
2022-12-03T11:58:59.312Z,10.82
2022-12-03T12:01:46.611Z,10.90
2022-12-03T12:04:38.356Z,10.32
2022-12-03T12:07:35.759Z,10.65
2022-12-03T12:10:38.926Z,11.05
2022-12-03T12:13:29.989Z,12.05
2022-12-03T12:16:32.254Z,10.85
2022-12-03T12:19:29.757Z,11.95
2022-12-03T12:22:33.200Z,11.77
2022-12-03T12:25:37.005Z,11.38
2022-12-03T12:28:24.081Z,12.00
2022-12-03T12:31:11.745Z,12.15
2022-12-03T12:33:58.906Z,12.07
2022-12-03T12:36:46.237Z,10.90
2022-12-03T12:39:35.913Z,11.57
2022-12-03T12:42:30.940Z,11.80
2022-12-03T12:45:20.360Z,14.00
2022-12-03T12:48:12.067Z,12.35
2022-12-03T12:51:00.165Z,12.10
2022-12-03T12:53:47.903Z,13.55
2022-12-03T12:56:37.591Z,14.55
2022-12-03T12:59:25.359Z,13.95
2022-12-03T13:02:24.995Z,13.18
2022-12-03T13:05:13.789Z,13.13
2022-12-03T13:08:03.639Z,15.07
2022-12-03T13:10:54.865Z,12.32
2022-12-03T13:13:44.610Z,13.32
2022-12-03T13:16:32.873Z,13.13
2022-12-03T13:19:23.155Z,13.35
2022-12-03T13:22:13.944Z,11.05
2022-12-03T13:25:04.444Z,12.40
2022-12-03T13:27:51.841Z,12.00
2022-12-03T13:30:40.388Z,13.68
2022-12-03T13:33:27.598Z,10.98
2022-12-03T13:36:16.090Z,10.82
2022-12-03T13:39:07.084Z,12.57
2022-12-03T13:42:11.959Z,12.25
2022-12-03T13:44:59.136Z,11.45
2022-12-03T13:47:48.681Z,11.68
2022-12-03T13:50:37.290Z,12.32
2022-12-03T13:53:25.195Z,12.48
2022-12-03T13:56:21.403Z,11.50
2022-12-03T13:59:09.039Z,11.10
2022-12-03T14:01:56.054Z,11.00
2022-12-03T14:04:44.674Z,11.68
2022-12-03T14:07:32.049Z,12.27
2022-12-03T14:10:19.286Z,11.98
2022-12-03T14:13:06.702Z,12.07
2022-12-03T14:15:53.959Z,13.07
2022-12-03T14:18:41.320Z,12.48
2022-12-03T14:21:29.968Z,13.18
2022-12-03T14:24:17.242Z,12.60
2022-12-03T14:27:04.746Z,11.90
2022-12-03T14:29:52.628Z,13.35
2022-12-03T14:32:40.327Z,10.80
2022-12-03T14:35:27.567Z,11.90
2022-12-03T14:38:16.289Z,12.88
2022-12-03T14:41:03.704Z,12.27
2022-12-03T14:43:51.007Z,12.23
2022-12-03T14:46:38.234Z,12.25
2022-12-03T14:49:25.963Z,11.93
2022-12-03T14:52:13.368Z,12.77
2022-12-03T14:55:01.984Z,13.77
2022-12-03T14:57:49.127Z,12.73
2022-12-03T15:00:36.720Z,11.27
2022-12-03T15:03:23.948Z,11.85
2022-12-03T15:06:11.124Z,11.55
2022-12-03T15:08:58.481Z,12.23
2022-12-03T15:11:47.280Z,11.27
2022-12-03T15:14:34.965Z,12.63
2022-12-03T15:17:29.699Z,12.60
2022-12-03T15:20:18.570Z,11.25
2022-12-03T15:23:09.859Z,12.25
2022-12-03T15:25:59.938Z,11.70
2022-12-03T15:28:48.663Z,10.65
2022-12-03T15:31:35.935Z,12.23
2022-12-03T15:34:23.528Z,11.05
2022-12-03T15:37:10.713Z,11.88
2022-12-03T15:39:58.367Z,11.88
2022-12-03T15:42:45.859Z,12.75
2022-12-03T15:45:34.546Z,11.95
2022-12-03T15:48:21.896Z,12.40
2022-12-03T15:51:09.407Z,12.30
2022-12-03T15:53:56.775Z,11.32
2022-12-03T15:56:44.279Z,13.15
2022-12-03T15:59:31.251Z,12.10
2022-12-03T16:02:20.044Z,10.55
2022-12-03T16:05:08.659Z,12.45
2022-12-03T16:07:55.748Z,11.70
2022-12-03T16:10:42.801Z,12.68
2022-12-03T16:13:30.071Z,11.95
2022-12-03T16:16:17.452Z,12.95
2022-12-03T16:19:06.256Z,13.45
2022-12-03T16:21:53.327Z,11.82
2022-12-03T16:24:40.795Z,12.95
2022-12-03T16:27:28.012Z,11.32
2022-12-03T16:30:15.625Z,12.50
2022-12-03T16:33:02.747Z,11.45
2022-12-03T16:35:51.767Z,11.82
2022-12-03T16:38:38.808Z,14.38
2022-12-03T16:41:26.467Z,12.60
2022-12-03T16:44:30.458Z,12.73
2022-12-03T16:47:17.835Z,12.77
2022-12-03T16:50:06.599Z,12.52
2022-12-03T16:52:55.307Z,12.82
2022-12-03T16:55:42.686Z,14.77
2022-12-03T16:58:30.108Z,12.10
2022-12-03T17:01:17.468Z,12.27
2022-12-03T17:04:04.527Z,12.63
2022-12-03T17:06:51.775Z,12.57
2022-12-03T17:09:40.384Z,12.77
2022-12-03T17:12:37.505Z,11.68
2022-12-03T17:15:34.923Z,12.40
2022-12-03T17:18:22.977Z,12.38
2022-12-03T17:21:10.204Z,13.38
2022-12-03T17:23:57.388Z,12.18
2022-12-03T17:26:46.434Z,13.98
2022-12-03T17:29:33.523Z,13.68
2022-12-03T17:32:20.891Z,11.43
2022-12-03T17:35:08.550Z,13.02
2022-12-03T17:37:55.522Z,12.63
2022-12-03T17:40:42.851Z,13.45
2022-12-03T17:43:31.423Z,13.88
2022-12-03T17:46:18.819Z,13.02
2022-12-03T17:49:05.895Z,12.98
2022-12-03T17:51:53.241Z,14.50
2022-12-03T17:55:08.536Z,11.70
2022-12-03T17:57:47.811Z,12.85
2022-12-03T18:00:36.647Z,12.23
2022-12-03T18:03:23.978Z,13.95
2022-12-03T18:06:11.376Z,12.70
2022-12-03T18:08:58.568Z,13.85
2022-12-03T18:11:45.892Z,13.48
2022-12-03T18:14:33.183Z,12.32
2022-12-03T18:17:21.968Z,14.07
2022-12-03T18:20:09.799Z,13.20
2022-12-03T18:22:58.392Z,13.65
2022-12-03T18:25:45.395Z,15.18
2022-12-03T18:28:32.647Z,13.20
2022-12-03T18:31:21.651Z,14.70
2022-12-03T18:34:10.086Z,14.15
2022-12-03T18:36:57.581Z,11.35
2022-12-03T18:39:46.579Z,13.68
2022-12-03T18:42:33.474Z,13.07
2022-12-03T18:45:20.803Z,14.02
2022-12-03T18:48:12.135Z,15.00
2022-12-03T18:51:01.720Z,12.38
2022-12-03T18:53:49.574Z,11.95
2022-12-03T18:56:36.713Z,14.02
2022-12-03T18:59:24.159Z,12.70
2022-12-03T19:02:26.727Z,13.25
2022-12-03T19:05:20.931Z,15.60
2022-12-03T19:08:14.656Z,14.30
2022-12-03T19:11:02.007Z,13.68
2022-12-03T19:13:49.485Z,15.02
2022-12-03T19:16:37.081Z,15.38
2022-12-03T19:19:27.252Z,14.20
2022-12-03T19:22:14.756Z,14.73
2022-12-03T19:25:03.391Z,14.98
2022-12-03T19:27:55.002Z,14.95
2022-12-03T19:30:42.295Z,13.07
2022-12-03T19:33:30.377Z,14.15
2022-12-03T19:36:20.467Z,13.63
2022-12-03T19:39:07.578Z,14.35
2022-12-03T19:41:56.138Z,14.35
2022-12-03T19:44:43.411Z,13.73
2022-12-03T19:47:32.969Z,14.68
2022-12-03T19:50:23.217Z,14.73
2022-12-03T19:53:11.044Z,14.98
2022-12-03T19:56:02.035Z,14.15
2022-12-03T19:58:54.251Z,15.38
2022-12-03T20:01:43.349Z,14.85
2022-12-03T20:04:30.916Z,15.02
2022-12-03T20:07:18.315Z,14.45
2022-12-03T20:10:06.230Z,13.10
2022-12-03T20:12:53.524Z,13.73
2022-12-03T20:15:42.176Z,15.07
2022-12-03T20:18:29.482Z,15.32
2022-12-03T20:21:18.529Z,13.50
2022-12-03T20:24:06.215Z,14.27
2022-12-03T20:26:53.496Z,13.25
2022-12-03T20:29:40.846Z,14.35
2022-12-03T20:32:29.525Z,12.45
2022-12-03T20:35:16.858Z,14.55
2022-12-03T20:38:04.199Z,14.07
2022-12-03T20:40:51.513Z,14.02
2022-12-03T20:43:38.826Z,13.35
2022-12-03T20:46:27.494Z,15.05
2022-12-03T20:49:16.243Z,14.30
2022-12-03T20:52:04.836Z,14.63
2022-12-03T20:54:52.140Z,13.48
2022-12-03T20:57:39.455Z,14.80
2022-12-03T21:00:26.919Z,15.00
2022-12-03T21:03:14.191Z,13.77
2022-12-03T21:06:02.911Z,12.25
2022-12-03T21:08:50.645Z,12.60
2022-12-03T21:11:41.318Z,12.45
2022-12-03T21:14:28.673Z,14.73
2022-12-03T21:17:16.036Z,14.10
2022-12-03T21:20:03.177Z,12.63
2022-12-03T21:22:52.149Z,14.30
2022-12-03T21:25:39.422Z,13.07
2022-12-03T21:28:26.773Z,14.30
2022-12-03T21:31:15.003Z,13.25
2022-12-03T21:34:02.879Z,13.95
2022-12-03T21:36:50.091Z,12.63
2022-12-03T21:39:38.715Z,14.40
2022-12-03T21:42:35.711Z,13.43
2022-12-03T21:45:26.506Z,13.50
2022-12-03T21:48:13.947Z,11.95
2022-12-03T21:51:01.725Z,13.30
2022-12-03T21:53:48.879Z,12.95
2022-12-03T21:56:37.554Z,14.27
2022-12-03T21:59:25.378Z,12.95
2022-12-03T22:02:12.756Z,13.68
2022-12-03T22:05:00.037Z,12.82
2022-12-03T22:07:47.338Z,12.88
2022-12-03T22:10:34.500Z,13.25
2022-12-03T22:13:23.222Z,11.75
2022-12-03T22:16:11.397Z,14.27
2022-12-03T22:18:58.616Z,13.38
2022-12-03T22:21:46.546Z,13.77
2022-12-03T22:24:33.747Z,12.98
2022-12-03T22:27:21.019Z,13.73
2022-12-03T22:30:10.170Z,13.30
2022-12-03T22:32:57.552Z,13.98
2022-12-03T22:35:44.814Z,12.98
2022-12-03T22:38:32.688Z,13.93
2022-12-03T22:41:20.480Z,13.07
2022-12-03T22:44:07.804Z,11.98
2022-12-03T22:46:56.552Z,11.85
2022-12-03T22:49:43.496Z,13.43
2022-12-03T22:52:31.163Z,13.57
2022-12-03T22:55:18.142Z,12.70
2022-12-03T22:58:05.605Z,12.07
2022-12-03T23:00:54.567Z,13.38
2022-12-03T23:03:44.887Z,13.13
2022-12-03T23:06:32.161Z,12.52
2022-12-03T23:09:19.535Z,12.35
2022-12-03T23:12:07.539Z,13.50
2022-12-03T23:14:55.426Z,12.38
2022-12-03T23:17:43.299Z,13.00
2022-12-03T23:20:31.754Z,14.23
2022-12-03T23:23:19.475Z,13.85
2022-12-03T23:26:08.290Z,14.20
2022-12-03T23:28:55.742Z,12.32
2022-12-03T23:31:43.154Z,11.63
2022-12-03T23:34:30.236Z,13.23
2022-12-03T23:37:18.691Z,13.02
2022-12-03T23:40:06.606Z,12.32
2022-12-03T23:42:53.821Z,13.70
2022-12-03T23:45:41.034Z,13.23
2022-12-03T23:48:29.558Z,14.18
2022-12-03T23:51:18.800Z,11.80
2022-12-03T23:54:07.499Z,13.95
2022-12-03T23:56:54.483Z,13.32
2022-12-03T23:59:42.198Z,14.80
